createdAt,value
2022-08-03T00:00:21.314Z,75.28
2022-08-03T00:02:48.074Z,75.28
2022-08-03T00:05:14.814Z,75.30
2022-08-03T00:07:41.462Z,75.48
2022-08-03T00:10:08.700Z,75.30
2022-08-03T00:12:36.470Z,75.63
2022-08-03T00:15:04.075Z,75.52
2022-08-03T00:17:53.014Z,75.65
2022-08-03T00:20:21.538Z,75.38
2022-08-03T00:22:48.580Z,75.46
2022-08-03T00:25:15.304Z,75.55
2022-08-03T00:27:42.065Z,75.15
2022-08-03T00:30:09.196Z,75.46
2022-08-03T00:32:35.830Z,75.28
2022-08-03T00:35:08.124Z,75.16
2022-08-03T00:37:41.452Z,75.07
2022-08-03T00:40:13.712Z,75.26
2022-08-03T00:42:50.656Z,75.16
2022-08-03T00:45:18.586Z,75.36
2022-08-03T00:47:45.892Z,75.39
2022-08-03T00:50:13.154Z,75.55
2022-08-03T00:52:40.037Z,75.48
2022-08-03T00:55:06.907Z,75.64
2022-08-03T00:57:33.703Z,75.88
2022-08-03T01:00:00.957Z,75.48
2022-08-03T01:02:28.871Z,75.55
2022-08-03T01:04:56.022Z,75.84
2022-08-03T01:07:35.800Z,75.79
2022-08-03T01:10:12.540Z,75.92
2022-08-03T01:12:48.817Z,76.09
2022-08-03T01:15:43.629Z,76.11
2022-08-03T01:18:18.528Z,76.49
2022-08-03T01:20:49.486Z,76.65
2022-08-03T01:23:59.111Z,76.54
2022-08-03T01:26:53.762Z,76.59
2022-08-03T01:29:58.571Z,76.21
2022-08-03T01:33:00.126Z,76.97
2022-08-03T01:35:44.832Z,76.77
2022-08-03T01:38:21.040Z,77.35
2022-08-03T01:40:49.070Z,78.13
2022-08-03T01:44:28.057Z,77.83
2022-08-03T01:46:08.735Z,77.85
2022-08-03T01:48:38.067Z,77.42
2022-08-03T01:51:05.372Z,77.64
2022-08-03T01:53:33.876Z,77.81
2022-08-03T01:56:02.926Z,77.76
2022-08-03T01:58:31.154Z,77.92
2022-08-03T02:01:01.159Z,78.15
2022-08-03T02:03:30.039Z,78.26
2022-08-03T02:06:59.608Z,78.64
2022-08-03T02:08:48.496Z,78.83
2022-08-03T02:11:15.511Z,78.89
2022-08-03T02:13:44.174Z,78.98
2022-08-03T02:16:12.791Z,79.10
2022-08-03T02:18:40.643Z,79.19
2022-08-03T02:21:11.094Z,79.67
2022-08-03T02:23:38.836Z,79.44
2022-08-03T02:26:09.415Z,79.39
2022-08-03T02:28:38.711Z,79.76
2022-08-03T02:31:11.855Z,79.53
2022-08-03T02:33:43.334Z,79.80
2022-08-03T02:36:13.373Z,80.04
2022-08-03T02:38:43.575Z,80.07
2022-08-03T02:41:17.742Z,80.13
2022-08-03T02:44:06.134Z,80.32
2022-08-03T02:46:38.737Z,80.03
2022-08-03T02:49:35.001Z,79.78
2022-08-03T02:51:54.430Z,80.44
2022-08-03T02:54:23.599Z,80.61
2022-08-03T02:56:51.716Z,80.32
2022-08-03T02:59:20.139Z,80.53
2022-08-03T03:01:47.679Z,80.56
2022-08-03T03:04:15.444Z,81.08
2022-08-03T03:06:44.452Z,80.53
2022-08-03T03:09:14.357Z,80.75
2022-08-03T03:11:41.604Z,80.40
2022-08-03T03:14:11.414Z,80.61
2022-08-03T03:16:39.494Z,80.37
2022-08-03T03:19:08.603Z,80.47
2022-08-03T03:21:36.671Z,80.73
2022-08-03T03:24:05.008Z,80.44
2022-08-03T03:26:32.216Z,80.22
2022-08-03T03:28:59.305Z,80.51
2022-08-03T03:31:26.000Z,81.27
2022-08-03T03:33:52.860Z,80.98
2022-08-03T03:36:19.666Z,80.96
2022-08-03T03:38:46.395Z,81.39
2022-08-03T03:41:13.238Z,81.43
2022-08-03T03:43:40.134Z,81.70
2022-08-03T03:46:06.804Z,81.00
2022-08-03T03:48:33.697Z,81.21
2022-08-03T03:51:01.178Z,81.65
2022-08-03T03:53:27.725Z,82.18
2022-08-03T03:56:01.673Z,81.87
2022-08-03T03:58:30.044Z,82.01
2022-08-03T04:00:56.754Z,81.89
2022-08-03T04:03:23.546Z,81.85
2022-08-03T04:06:08.951Z,82.02
2022-08-03T04:08:54.297Z,81.90
2022-08-03T04:11:27.482Z,81.55
2022-08-03T04:14:12.897Z,81.64
2022-08-03T04:16:44.009Z,81.57
2022-08-03T04:19:14.269Z,81.75
2022-08-03T04:21:44.459Z,81.71
2022-08-03T04:24:13.614Z,81.71
2022-08-03T04:26:42.837Z,81.72
2022-08-03T04:29:12.029Z,81.33
2022-08-03T04:31:40.068Z,81.47
2022-08-03T04:34:07.794Z,80.96
2022-08-03T04:36:40.159Z,81.07
2022-08-03T04:39:27.717Z,81.06
2022-08-03T04:42:08.802Z,80.93
2022-08-03T04:44:41.677Z,80.67
2022-08-03T04:47:09.020Z,80.28
2022-08-03T04:49:37.973Z,80.35
2022-08-03T04:52:07.301Z,80.25
2022-08-03T04:54:50.001Z,80.97
2022-08-03T04:57:22.310Z,80.37
2022-08-03T04:59:58.269Z,79.95
2022-08-03T05:02:28.671Z,79.32
2022-08-03T05:04:55.242Z,79.68
2022-08-03T05:07:24.980Z,79.09
2022-08-03T05:09:57.568Z,78.78
2022-08-03T05:12:32.601Z,78.54
2022-08-03T05:15:00.112Z,78.32
2022-08-03T05:17:27.066Z,78.18
2022-08-03T05:19:53.670Z,78.10
2022-08-03T05:22:20.896Z,77.87
2022-08-03T05:24:47.547Z,77.65
2022-08-03T05:27:19.309Z,78.02
2022-08-03T05:29:46.811Z,77.65
2022-08-03T05:32:13.550Z,77.62
2022-08-03T05:34:40.131Z,77.28
2022-08-03T05:37:07.513Z,77.23
2022-08-03T05:39:34.883Z,76.86
2022-08-03T05:42:02.189Z,76.55
2022-08-03T05:44:28.829Z,76.54
2022-08-03T05:46:57.574Z,76.28
2022-08-03T05:49:24.168Z,76.08
2022-08-03T05:52:00.082Z,75.66
2022-08-03T05:54:56.042Z,75.17
2022-08-03T05:57:23.641Z,74.77
2022-08-03T05:59:53.825Z,73.99
2022-08-03T06:02:26.619Z,73.60
2022-08-03T06:04:53.266Z,73.31
2022-08-03T06:07:19.935Z,73.25
2022-08-03T06:10:35.427Z,72.81
2022-08-03T06:12:36.261Z,71.99
2022-08-03T06:15:04.693Z,71.94
2022-08-03T06:17:37.335Z,71.53
2022-08-03T06:20:05.614Z,71.31
2022-08-03T06:22:32.243Z,71.20
2022-08-03T06:24:59.014Z,71.27
2022-08-03T06:27:37.006Z,71.22
2022-08-03T06:30:04.732Z,70.79
2022-08-03T06:32:31.355Z,70.28
2022-08-03T06:34:57.935Z,69.93
2022-08-03T06:37:24.848Z,69.50
2022-08-03T06:39:51.450Z,69.13
2022-08-03T06:42:18.366Z,68.89
2022-08-03T06:44:47.701Z,68.50
2022-08-03T06:47:14.274Z,67.85
2022-08-03T06:49:41.756Z,67.85
2022-08-03T06:52:08.361Z,67.69
2022-08-03T06:54:36.063Z,67.37
2022-08-03T06:57:02.927Z,66.82
2022-08-03T07:00:10.939Z,66.93
2022-08-03T07:02:19.116Z,66.32
2022-08-03T07:04:47.517Z,66.41
2022-08-03T07:07:14.208Z,65.78
2022-08-03T07:09:40.868Z,65.53
2022-08-03T07:12:08.670Z,65.07
2022-08-03T07:14:35.242Z,64.63
2022-08-03T07:17:01.855Z,64.63
2022-08-03T07:19:38.070Z,64.28
2022-08-03T07:22:04.863Z,64.09
2022-08-03T07:24:31.439Z,63.50
2022-08-03T07:26:58.078Z,63.34
2022-08-03T07:29:25.112Z,63.06
2022-08-03T07:31:51.741Z,62.99
2022-08-03T07:34:18.481Z,62.68
2022-08-03T07:36:45.048Z,62.70
2022-08-03T07:39:16.639Z,62.56
2022-08-03T07:41:44.773Z,62.04
2022-08-03T07:44:11.472Z,61.72
2022-08-03T07:46:38.017Z,61.08
2022-08-03T07:49:05.387Z,60.33
2022-08-03T07:51:31.905Z,59.94
2022-08-03T07:53:59.185Z,59.91
2022-08-03T07:56:25.877Z,59.76
2022-08-03T07:58:53.568Z,59.53
2022-08-03T08:01:20.566Z,59.34
2022-08-03T08:03:53.113Z,59.55
2022-08-03T08:06:21.033Z,58.70
2022-08-03T08:08:47.596Z,56.46
2022-08-03T08:11:14.312Z,55.01
2022-08-03T08:13:40.952Z,54.60
2022-08-03T08:16:07.602Z,53.14
2022-08-03T08:18:34.614Z,52.85
2022-08-03T08:21:03.303Z,52.81
2022-08-03T08:23:42.149Z,52.23
2022-08-03T08:26:09.671Z,51.99
2022-08-03T08:28:36.235Z,51.42
2022-08-03T08:31:02.887Z,50.72
2022-08-03T08:33:47.907Z,49.94
2022-08-03T08:36:16.118Z,49.45
2022-08-03T08:38:44.715Z,49.02
2022-08-03T08:41:11.875Z,48.62
2022-08-03T08:43:38.678Z,48.70
2022-08-03T08:46:08.385Z,48.30
2022-08-03T08:48:36.384Z,48.35
2022-08-03T08:51:03.477Z,48.02
2022-08-03T08:53:32.424Z,46.54
2022-08-03T08:56:01.645Z,46.80
2022-08-03T08:58:41.526Z,45.74
2022-08-03T09:01:08.145Z,46.45
2022-08-03T09:03:34.792Z,45.78
2022-08-03T09:06:02.604Z,45.08
2022-08-03T09:08:30.662Z,44.75
2022-08-03T09:10:57.421Z,44.85
2022-08-03T09:13:24.534Z,45.36
2022-08-03T09:16:15.051Z,45.37
2022-08-03T09:18:44.447Z,44.53
2022-08-03T09:21:35.512Z,43.60
2022-08-03T09:24:05.673Z,45.30
2022-08-03T09:26:35.902Z,45.40
2022-08-03T09:29:11.209Z,45.36
2022-08-03T09:31:46.020Z,45.31
2022-08-03T09:34:15.331Z,44.94
2022-08-03T09:36:41.925Z,44.21
2022-08-03T09:39:15.051Z,44.89
2022-08-03T09:41:48.396Z,44.15
2022-08-03T09:44:24.267Z,43.37
2022-08-03T09:46:55.439Z,43.90
2022-08-03T09:49:22.611Z,44.68
2022-08-03T09:52:37.582Z,44.41
2022-08-03T09:54:36.022Z,43.73
2022-08-03T09:57:02.783Z,42.93
2022-08-03T09:59:31.017Z,43.06
2022-08-03T10:02:00.009Z,42.84
2022-08-03T10:04:26.875Z,41.57
2022-08-03T10:07:23.746Z,42.06
2022-08-03T10:09:55.824Z,40.42
2022-08-03T10:12:22.662Z,41.44
2022-08-03T10:14:52.386Z,41.21
2022-08-03T10:17:20.588Z,41.50
2022-08-03T10:19:47.945Z,42.27
2022-08-03T10:22:22.096Z,41.67
2022-08-03T10:25:11.612Z,41.34
2022-08-03T10:27:45.054Z,40.49
2022-08-03T10:30:12.269Z,40.19
2022-08-03T10:32:42.505Z,41.13
2022-08-03T10:35:19.650Z,40.33
2022-08-03T10:38:26.259Z,39.88
2022-08-03T10:40:58.750Z,39.46
2022-08-03T10:43:28.958Z,38.61
2022-08-03T10:45:56.861Z,39.26
2022-08-03T10:48:24.290Z,38.85
2022-08-03T10:50:51.095Z,38.61
2022-08-03T10:53:34.766Z,37.88
2022-08-03T10:56:35.734Z,37.98
2022-08-03T10:59:06.982Z,37.23
2022-08-03T11:02:00.405Z,37.23
2022-08-03T11:04:29.967Z,36.44
2022-08-03T11:07:16.473Z,35.60
2022-08-03T11:09:44.007Z,36.48
2022-08-03T11:12:30.326Z,36.91
2022-08-03T11:15:03.939Z,37.21
2022-08-03T11:17:31.797Z,36.97
2022-08-03T11:19:58.763Z,37.39
2022-08-03T11:22:26.144Z,37.31
2022-08-03T11:24:56.458Z,37.24
2022-08-03T11:27:40.941Z,37.60
2022-08-03T11:30:27.832Z,36.44
2022-08-03T11:32:58.022Z,37.17
2022-08-03T11:35:29.397Z,37.38
2022-08-03T11:38:03.302Z,37.06
2022-08-03T11:40:44.957Z,37.56
2022-08-03T11:43:31.447Z,37.13
2022-08-03T11:46:03.421Z,36.13
2022-08-03T11:48:38.788Z,37.36
2022-08-03T11:51:08.229Z,36.16
2022-08-03T11:53:42.012Z,36.05
2022-08-03T11:56:12.971Z,36.17
2022-08-03T11:59:10.956Z,36.53
2022-08-03T12:01:34.415Z,37.02
2022-08-03T12:04:05.410Z,37.13
2022-08-03T12:06:52.008Z,38.00
2022-08-03T12:09:18.645Z,37.73
2022-08-03T12:11:51.653Z,37.40
2022-08-03T12:14:48.940Z,36.07
2022-08-03T12:17:14.946Z,36.22
2022-08-03T12:19:42.988Z,36.00
2022-08-03T12:22:09.633Z,35.64
2022-08-03T12:24:42.740Z,35.39
2022-08-03T12:27:09.635Z,35.38
2022-08-03T12:29:36.550Z,35.55
2022-08-03T12:32:03.391Z,36.00
2022-08-03T12:34:47.449Z,36.68
2022-08-03T12:37:21.883Z,35.90
2022-08-03T12:40:00.524Z,35.24
2022-08-03T12:42:32.140Z,34.82
2022-08-03T12:44:58.632Z,34.67
2022-08-03T12:47:25.262Z,35.38
2022-08-03T12:49:52.759Z,36.43
2022-08-03T12:52:22.207Z,35.95
2022-08-03T12:54:59.711Z,36.16
2022-08-03T12:57:41.457Z,36.88
2022-08-03T13:00:21.830Z,36.93
2022-08-03T13:03:39.134Z,37.93
2022-08-03T13:05:55.025Z,38.14
2022-08-03T13:08:23.608Z,38.40
2022-08-03T13:10:50.831Z,36.94
2022-08-03T13:13:17.489Z,36.97
2022-08-03T13:15:47.996Z,36.03
2022-08-03T13:18:17.212Z,36.73
2022-08-03T13:20:44.390Z,35.85
2022-08-03T13:23:15.514Z,36.11
2022-08-03T13:25:55.009Z,35.45
2022-08-03T13:28:22.600Z,35.81
2022-08-03T13:30:49.315Z,35.87
2022-08-03T13:33:16.116Z,35.87
2022-08-03T13:35:42.723Z,35.50
2022-08-03T13:38:09.358Z,35.54
2022-08-03T13:40:41.624Z,35.70
2022-08-03T13:43:09.105Z,35.67
2022-08-03T13:45:35.806Z,34.97
2022-08-03T13:48:02.545Z,34.42
2022-08-03T13:50:30.111Z,34.71
2022-08-03T13:52:57.968Z,34.92
2022-08-03T13:55:24.827Z,34.51
2022-08-03T13:58:03.024Z,35.55
2022-08-03T14:00:33.907Z,34.22
2022-08-03T14:03:07.992Z,34.10
2022-08-03T14:05:39.238Z,34.18
2022-08-03T14:08:07.293Z,33.80
2022-08-03T14:10:39.753Z,33.45
2022-08-03T14:13:07.247Z,33.55
2022-08-03T14:15:37.481Z,32.92
2022-08-03T14:18:05.512Z,33.51
2022-08-03T14:20:37.512Z,33.12
2022-08-03T14:23:06.967Z,33.71
2022-08-03T14:25:49.851Z,34.02
2022-08-03T14:28:18.665Z,33.39
2022-08-03T14:30:45.469Z,33.25
2022-08-03T14:33:12.052Z,33.88
2022-08-03T14:35:38.724Z,34.03
2022-08-03T14:38:06.173Z,34.43
2022-08-03T14:40:32.946Z,35.08
2022-08-03T14:42:59.611Z,34.42
2022-08-03T14:45:26.184Z,33.70
2022-08-03T14:50:10.425Z,34.10
2022-08-03T14:50:44.180Z,34.78
2022-08-03T14:53:12.734Z,33.95
2022-08-03T14:55:49.384Z,33.81
2022-08-03T14:58:21.061Z,33.86
2022-08-03T15:00:49.561Z,35.78
2022-08-03T15:03:17.524Z,35.61
2022-08-03T15:05:44.737Z,35.94
2022-08-03T15:08:11.813Z,34.60
2022-08-03T15:10:40.659Z,34.41
2022-08-03T15:13:12.811Z,33.07
2022-08-03T15:15:40.211Z,32.54
2022-08-03T15:18:06.870Z,31.72
2022-08-03T15:20:43.877Z,31.42
2022-08-03T15:23:11.812Z,32.40
2022-08-03T15:26:32.241Z,31.95
2022-08-03T15:28:25.304Z,32.65
2022-08-03T15:30:53.888Z,31.95
2022-08-03T15:33:20.630Z,31.93
2022-08-03T15:35:47.866Z,32.47
2022-08-03T15:38:14.837Z,32.26
2022-08-03T15:40:41.835Z,32.18
2022-08-03T15:43:08.799Z,32.26
2022-08-03T15:45:36.332Z,32.86
2022-08-03T15:48:05.219Z,32.64
2022-08-03T15:50:31.830Z,32.99
2022-08-03T15:52:58.446Z,32.48
2022-08-03T15:55:25.147Z,32.90
2022-08-03T15:59:07.604Z,32.89
2022-08-03T16:00:39.646Z,33.75
2022-08-03T16:03:06.287Z,34.43
2022-08-03T16:05:33.067Z,35.17
2022-08-03T16:08:03.466Z,35.29
2022-08-03T16:10:31.460Z,35.08
2022-08-03T16:13:00.852Z,33.50
2022-08-03T16:15:28.044Z,34.02
2022-08-03T16:17:54.864Z,33.82
2022-08-03T16:20:30.862Z,33.43
2022-08-03T16:23:00.855Z,33.58
2022-08-03T16:25:33.158Z,33.73
2022-08-03T16:28:08.177Z,33.52
2022-08-03T16:30:40.180Z,33.90
2022-08-03T16:33:06.973Z,33.40
2022-08-03T16:35:33.881Z,33.74
2022-08-03T16:38:00.616Z,34.53
2022-08-03T16:40:27.451Z,33.88
2022-08-03T16:42:54.509Z,33.39
2022-08-03T16:45:21.644Z,34.95
2022-08-03T16:47:48.330Z,34.83
2022-08-03T16:50:28.548Z,34.81
2022-08-03T16:52:55.204Z,34.32
2022-08-03T16:55:48.885Z,34.52
2022-08-03T16:58:08.576Z,34.15
2022-08-03T17:00:41.533Z,34.65
2022-08-03T17:03:12.531Z,35.06
2022-08-03T17:05:48.246Z,35.11
2022-08-03T17:08:18.930Z,35.55
2022-08-03T17:10:53.773Z,35.22
2022-08-03T17:13:22.617Z,35.67
2022-08-03T17:16:00.752Z,35.44
2022-08-03T17:18:34.145Z,35.65
2022-08-03T17:21:06.320Z,35.59
2022-08-03T17:23:37.307Z,35.38
2022-08-03T17:26:10.623Z,36.03
2022-08-03T17:28:51.983Z,36.12
2022-08-03T17:31:31.234Z,35.72
2022-08-03T17:34:01.570Z,35.99
2022-08-03T17:36:53.922Z,36.25
2022-08-03T17:39:17.975Z,36.61
2022-08-03T17:41:48.995Z,36.50
2022-08-03T17:44:37.668Z,36.84
2022-08-03T17:47:07.147Z,36.29
2022-08-03T17:49:39.786Z,36.97
2022-08-03T17:52:28.254Z,36.93
2022-08-03T17:55:55.231Z,36.89
2022-08-03T17:58:02.803Z,36.97
2022-08-03T18:00:52.141Z,37.55
2022-08-03T18:03:58.126Z,37.40
2022-08-03T18:06:27.937Z,37.44
2022-08-03T18:09:04.914Z,37.98
2022-08-03T18:11:50.739Z,37.67
2022-08-03T18:14:29.528Z,38.06
2022-08-03T18:17:04.902Z,38.25
2022-08-03T18:20:02.660Z,38.54
2022-08-03T18:22:25.251Z,38.94
2022-08-03T18:24:52.669Z,39.10
2022-08-03T18:27:21.349Z,39.43
2022-08-03T18:29:49.820Z,39.57
2022-08-03T18:32:18.154Z,39.87
2022-08-03T18:34:53.055Z,40.05
2022-08-03T18:37:25.251Z,40.33
2022-08-03T18:39:55.695Z,40.46
2022-08-03T18:42:26.216Z,40.81
2022-08-03T18:44:56.144Z,41.12
2022-08-03T18:47:52.103Z,41.27
2022-08-03T18:50:57.871Z,41.55
2022-08-03T18:54:03.222Z,41.92
2022-08-03T18:56:45.000Z,42.27
2022-08-03T18:59:30.273Z,43.06
2022-08-03T19:02:05.499Z,43.14
2022-08-03T19:04:44.765Z,43.74
2022-08-03T19:07:17.466Z,44.15
2022-08-03T19:09:54.614Z,43.97
2022-08-03T19:12:33.812Z,43.95
2022-08-03T19:15:10.434Z,44.35
2022-08-03T19:17:53.309Z,44.39
2022-08-03T19:20:34.994Z,44.63
2022-08-03T19:23:01.842Z,44.79
2022-08-03T19:25:34.414Z,45.09
2022-08-03T19:28:03.915Z,45.65
2022-08-03T19:30:38.998Z,45.64
2022-08-03T19:33:15.637Z,46.19
2022-08-03T19:35:54.990Z,46.25
2022-08-03T19:41:13.970Z,46.61
2022-08-03T19:43:53.210Z,46.75
2022-08-03T19:46:22.285Z,47.97
2022-08-03T19:49:10.720Z,48.15
2022-08-03T19:52:02.512Z,48.65
2022-08-03T19:54:45.773Z,48.81
2022-08-03T19:57:23.268Z,48.89
2022-08-03T19:59:52.541Z,49.14
2022-08-03T20:02:26.294Z,49.20
2022-08-03T20:04:57.638Z,49.11
2022-08-03T20:07:28.223Z,49.45
2022-08-03T20:09:56.662Z,50.18
2022-08-03T20:12:27.465Z,50.29
2022-08-03T20:14:57.401Z,49.93
2022-08-03T20:17:54.422Z,50.20
2022-08-03T20:20:10.727Z,51.06
2022-08-03T21:13:02.596Z,46.62
2022-08-03T21:44:49.112Z,57.00
2022-08-03T21:47:16.167Z,57.42
2022-08-03T21:50:07.622Z,56.70
2022-08-03T21:52:41.119Z,57.34
2022-08-03T21:55:08.088Z,57.56
2022-08-03T21:57:37.669Z,57.66
2022-08-03T22:00:14.720Z,57.78
2022-08-03T22:02:45.047Z,58.08
2022-08-03T22:05:24.936Z,57.98
2022-08-03T22:07:56.826Z,58.20
2022-08-03T22:10:23.731Z,58.27
2022-08-03T22:12:50.431Z,58.46
2022-08-03T22:15:17.294Z,58.75
2022-08-03T22:17:55.937Z,59.37
2022-08-03T22:20:24.411Z,58.87
2022-08-03T22:22:55.797Z,59.61
2022-08-03T22:25:28.766Z,60.40
2022-08-03T22:27:56.361Z,60.54
2022-08-03T22:30:22.967Z,60.31
2022-08-03T22:32:51.962Z,60.15
2022-08-03T22:35:21.380Z,60.15
2022-08-03T22:37:54.238Z,60.39
2022-08-03T22:40:21.281Z,60.47
2022-08-03T22:42:52.215Z,60.45
2022-08-03T22:46:07.542Z,60.15
2022-08-03T22:48:07.527Z,60.42
2022-08-03T22:50:34.976Z,60.69
2022-08-03T22:53:01.776Z,60.67
2022-08-03T22:55:28.391Z,60.44
2022-08-03T22:57:56.035Z,60.77
2022-08-03T23:00:23.774Z,61.43
2022-08-03T23:02:51.018Z,61.57
2022-08-03T23:06:02.592Z,61.40
2022-08-03T23:08:13.977Z,61.41
2022-08-03T23:10:46.847Z,61.73
2022-08-03T23:13:16.443Z,61.51
2022-08-03T23:15:56.808Z,61.26
2022-08-03T23:18:24.875Z,61.71
2022-08-03T23:20:53.265Z,62.10
2022-08-03T23:23:20.193Z,62.12
2022-08-03T23:25:49.828Z,62.30
2022-08-03T23:28:17.334Z,62.12
2022-08-03T23:30:45.531Z,61.96
2022-08-03T23:33:14.966Z,62.14
2022-08-03T23:36:18.727Z,62.24
2022-08-03T23:38:48.136Z,62.66
2022-08-03T23:41:15.213Z,63.07
2022-08-03T23:43:51.757Z,63.16
2022-08-03T23:46:22.176Z,63.20
2022-08-03T23:48:49.618Z,62.96
2022-08-03T23:51:40.131Z,63.88
2022-08-03T23:54:23.948Z,63.67
2022-08-03T23:56:59.964Z,64.08
